createdAt,value
2018-02-09T00:00:36.750Z,60.03
2018-02-09T00:03:04.315Z,51.83
2018-02-09T00:05:31.878Z,52.37
2018-02-09T00:07:59.495Z,60.67
2018-02-09T00:10:27.126Z,48.37
2018-02-09T00:12:54.745Z,57.97
2018-02-09T00:15:22.310Z,46.00
2018-02-09T00:17:49.893Z,52.87
2018-02-09T00:20:17.523Z,49.17
2018-02-09T00:22:52.933Z,61.27
2018-02-09T00:25:20.507Z,46.07
2018-02-09T00:27:48.067Z,48.07
2018-02-09T00:30:15.747Z,49.33
2018-02-09T00:32:43.315Z,45.60
2018-02-09T00:35:10.875Z,49.73
2018-02-09T00:37:38.519Z,50.53
2018-02-09T00:40:06.098Z,45.37
2018-02-09T00:42:33.744Z,56.43
2018-02-09T00:45:01.470Z,49.87
2018-02-09T00:47:29.099Z,50.50
2018-02-09T00:49:56.646Z,59.70
2018-02-09T00:52:24.218Z,57.60
2018-02-09T00:54:51.774Z,52.20
2018-02-09T00:57:19.342Z,56.13
2018-02-09T00:59:46.909Z,44.07
2018-02-09T01:02:14.577Z,42.40
2018-02-09T01:04:42.158Z,43.30
2018-02-09T01:07:09.741Z,41.57
2018-02-09T01:09:37.310Z,37.73
2018-02-09T01:12:04.926Z,40.67
2018-02-09T01:14:32.562Z,33.70
2018-02-09T01:17:00.130Z,36.30
2018-02-09T01:19:27.707Z,42.33
2018-02-09T01:21:55.331Z,44.90
2018-02-09T01:24:22.945Z,39.60
2018-02-09T01:26:50.506Z,49.17
2018-02-09T01:29:18.066Z,44.50
2018-02-09T01:31:45.646Z,51.73
2018-02-09T01:34:13.222Z,53.30
2018-02-09T01:36:40.856Z,56.23
2018-02-09T01:39:08.494Z,53.90
2018-02-09T01:41:36.123Z,54.00
2018-02-09T01:44:03.703Z,50.00
2018-02-09T01:46:31.271Z,56.03
2018-02-09T01:48:58.895Z,58.23
2018-02-09T01:51:26.477Z,43.53
2018-02-09T01:53:54.045Z,59.27
2018-02-09T01:56:21.686Z,51.67
2018-02-09T01:58:49.321Z,45.87
2018-02-09T02:01:16.947Z,35.93
2018-02-09T02:03:44.515Z,35.90
2018-02-09T02:06:12.166Z,37.20
2018-02-09T02:08:39.736Z,39.10
2018-02-09T02:11:07.372Z,39.97
2018-02-09T02:13:35.007Z,40.10
2018-02-09T02:16:02.566Z,36.70
2018-02-09T02:18:30.144Z,36.23
2018-02-09T02:20:57.739Z,42.77
2018-02-09T02:23:25.310Z,37.87
2018-02-09T02:25:53.078Z,44.50
2018-02-09T02:28:20.646Z,35.37
2018-02-09T02:30:48.219Z,45.33
2018-02-09T02:33:15.868Z,36.70
2018-02-09T02:35:43.495Z,40.00
2018-02-09T02:38:11.131Z,39.43
2018-02-09T02:40:38.712Z,34.70
2018-02-09T02:43:06.285Z,39.80
2018-02-09T02:45:33.888Z,47.43
2018-02-09T02:48:01.470Z,53.67
2018-02-09T02:50:29.093Z,58.20
2018-02-09T02:52:56.658Z,52.37
2018-02-09T02:55:24.286Z,40.03
2018-02-09T02:57:51.920Z,41.83
2018-02-09T03:00:19.840Z,37.00
2018-02-09T03:02:47.471Z,45.03
2018-02-09T03:05:15.094Z,36.93
2018-02-09T03:07:42.654Z,29.60
2018-02-09T03:10:10.291Z,45.23
2018-02-09T03:12:37.849Z,36.30
2018-02-09T03:15:05.468Z,38.27
2018-02-09T03:17:33.015Z,47.53
2018-02-09T03:20:00.582Z,43.33
2018-02-09T03:22:28.161Z,41.30
2018-02-09T03:24:55.718Z,57.83
2018-02-09T03:27:23.394Z,42.33
2018-02-09T03:29:50.951Z,47.17
2018-02-09T03:32:18.525Z,40.90
2018-02-09T03:34:46.099Z,30.23
2018-02-09T03:37:13.674Z,30.00
2018-02-09T03:39:41.367Z,30.77
2018-02-09T03:42:08.935Z,35.70
2018-02-09T03:44:36.511Z,35.57
2018-02-09T03:47:04.086Z,30.93
2018-02-09T03:49:31.668Z,33.70
2018-02-09T03:51:59.355Z,32.33
2018-02-09T03:54:26.970Z,32.77
2018-02-09T03:56:54.544Z,46.97
2018-02-09T03:59:22.182Z,35.33
2018-02-09T04:01:49.745Z,38.20
2018-02-09T04:04:17.430Z,27.80
2018-02-09T04:06:45.058Z,39.77
2018-02-09T04:09:12.692Z,38.17
2018-02-09T04:11:40.308Z,34.27
2018-02-09T04:14:07.881Z,31.87
2018-02-09T04:16:35.505Z,34.00
2018-02-09T04:19:03.099Z,38.97
2018-02-09T04:21:30.752Z,36.53
2018-02-09T04:23:58.410Z,31.97
2018-02-09T04:26:25.973Z,33.73
2018-02-09T04:28:53.646Z,37.33
2018-02-09T04:31:21.234Z,27.37
2018-02-09T04:33:48.803Z,29.60
2018-02-09T04:36:16.431Z,35.10
2018-02-09T04:38:44.005Z,31.00
2018-02-09T04:41:11.654Z,28.27
2018-02-09T04:43:39.308Z,26.50
2018-02-09T04:46:06.877Z,34.00
2018-02-09T04:48:34.505Z,40.43
2018-02-09T04:51:02.933Z,36.40
2018-02-09T04:53:30.661Z,38.40
2018-02-09T04:55:58.230Z,42.37
2018-02-09T04:58:25.790Z,46.73
2018-02-09T05:00:53.371Z,37.50
2018-02-09T05:03:21.026Z,31.10
2018-02-09T05:05:48.746Z,28.50
2018-02-09T05:08:16.367Z,25.00
2018-02-09T05:10:43.934Z,24.53
2018-02-09T05:13:11.570Z,22.30
2018-02-09T05:15:39.194Z,25.00
2018-02-09T05:18:06.826Z,35.57
2018-02-09T05:20:34.385Z,64.17
2018-02-09T05:23:01.968Z,48.13
2018-02-09T05:25:29.543Z,28.70
2018-02-09T05:27:57.168Z,34.37
2018-02-09T05:30:24.777Z,29.17
2018-02-09T05:32:52.407Z,34.43
2018-02-09T05:35:19.979Z,23.80
2018-02-09T05:37:47.615Z,25.00
2018-02-09T05:40:15.200Z,22.07
2018-02-09T05:42:42.839Z,28.13
2018-02-09T05:45:10.410Z,23.57
2018-02-09T05:47:37.971Z,28.83
2018-02-09T05:50:05.580Z,30.07
2018-02-09T05:52:33.149Z,23.90
2018-02-09T05:55:00.769Z,36.00
2018-02-09T05:57:28.390Z,19.10
2018-02-09T05:59:55.950Z,29.80
2018-02-09T06:02:23.521Z,22.57
2018-02-09T06:04:51.142Z,26.37
2018-02-09T06:07:18.781Z,21.50
2018-02-09T06:09:46.349Z,24.97
2018-02-09T06:12:14.026Z,17.53
2018-02-09T06:14:41.596Z,22.63
2018-02-09T06:17:09.138Z,27.73
2018-02-09T06:19:36.715Z,26.10
2018-02-09T06:22:04.295Z,20.07
2018-02-09T06:24:31.928Z,14.80
2018-02-09T06:26:59.502Z,18.80
2018-02-09T06:29:27.122Z,22.20
2018-02-09T06:31:54.678Z,21.67
2018-02-09T06:34:22.239Z,16.87
2018-02-09T06:36:49.805Z,18.20
2018-02-09T06:39:17.361Z,34.13
2018-02-09T06:41:44.947Z,28.93
2018-02-09T06:44:12.550Z,23.63
2018-02-09T06:46:40.351Z,24.70
2018-02-09T06:49:07.921Z,20.27
2018-02-09T06:51:35.551Z,22.63
2018-02-09T06:54:03.140Z,23.23
2018-02-09T06:56:30.772Z,16.40
2018-02-09T06:58:58.347Z,14.30
2018-02-09T07:01:25.966Z,18.87
2018-02-09T07:03:53.577Z,11.23
2018-02-09T07:06:21.139Z,17.00
2018-02-09T07:08:48.703Z,14.80
2018-02-09T07:11:16.265Z,14.60
2018-02-09T07:13:43.893Z,18.83
2018-02-09T07:16:11.527Z,75.20
2018-02-09T07:18:39.084Z,12.37
2018-02-09T07:21:06.758Z,21.93
2018-02-09T07:23:34.323Z,185.03
2018-02-09T07:26:01.888Z,35.43
2018-02-09T07:28:29.460Z,14.57
2018-02-09T07:30:57.029Z,17.30
2018-02-09T07:33:24.654Z,33.73
2018-02-09T07:35:52.228Z,20.90
2018-02-09T07:38:19.828Z,27.07
2018-02-09T07:40:47.392Z,27.80
2018-02-09T07:43:15.073Z,16.47
2018-02-09T07:45:42.650Z,22.17
2018-02-09T07:48:10.218Z,15.30
2018-02-09T07:50:37.820Z,16.07
2018-02-09T07:53:05.363Z,31.33
2018-02-09T07:55:32.996Z,18.40
2018-02-09T07:58:00.646Z,24.03
2018-02-09T08:00:28.206Z,37.40
2018-02-09T08:02:55.788Z,22.40
2018-02-09T08:05:23.367Z,43.10
2018-02-09T08:07:51.008Z,37.67
2018-02-09T08:10:18.630Z,30.80
2018-02-09T08:12:46.258Z,43.50
2018-02-09T08:15:13.886Z,45.87
2018-02-09T08:17:41.460Z,51.07
2018-02-09T08:20:09.049Z,32.53
2018-02-09T08:22:36.679Z,33.30
2018-02-09T08:25:04.298Z,17.30
2018-02-09T08:27:31.936Z,38.03
2018-02-09T08:29:59.558Z,16.07
2018-02-09T08:32:27.183Z,81.97
2018-02-09T08:34:54.784Z,24.30
2018-02-09T08:37:22.370Z,27.50
2018-02-09T08:39:49.954Z,31.43
2018-02-09T08:42:17.541Z,18.47
2018-02-09T08:44:45.094Z,23.40
2018-02-09T08:47:12.770Z,22.33
2018-02-09T08:49:40.387Z,14.53
2018-02-09T08:52:07.954Z,60.30
2018-02-09T08:54:35.530Z,27.03
2018-02-09T08:57:03.155Z,20.10
2018-02-09T08:59:30.721Z,21.23
2018-02-09T09:01:58.286Z,24.40
2018-02-09T09:04:25.932Z,26.73
2018-02-09T09:06:53.558Z,21.27
2018-02-09T09:09:21.121Z,18.10
2018-02-09T09:11:48.704Z,21.23
2018-02-09T09:14:16.272Z,23.77
2018-02-09T09:16:43.894Z,13.20
2018-02-09T09:19:11.461Z,19.90
2018-02-09T09:21:39.152Z,26.70
2018-02-09T09:24:06.774Z,73.70
2018-02-09T09:26:34.404Z,17.53
2018-02-09T09:29:01.990Z,11.00
2018-02-09T09:31:29.561Z,13.90
2018-02-09T09:33:57.156Z,8.80
2018-02-09T09:36:24.736Z,12.73
2018-02-09T09:38:52.431Z,15.50
2018-02-09T09:41:20.003Z,14.23
2018-02-09T09:43:47.574Z,17.27
2018-02-09T09:46:15.202Z,29.27
2018-02-09T09:48:42.830Z,16.33
2018-02-09T09:51:10.404Z,32.83
2018-02-09T09:53:37.945Z,21.40
2018-02-09T09:56:05.558Z,12.50
2018-02-09T09:58:33.122Z,19.83
2018-02-09T10:01:00.726Z,15.50
2018-02-09T10:03:28.294Z,10.23
2018-02-09T10:05:55.915Z,18.23
2018-02-09T10:08:23.509Z,16.40
2018-02-09T10:10:51.126Z,30.50
2018-02-09T10:13:18.751Z,34.03
2018-02-09T10:15:46.326Z,21.20
2018-02-09T10:18:13.903Z,27.77
2018-02-09T10:20:41.483Z,16.60
2018-02-09T10:23:09.115Z,10.00
2018-02-09T10:25:36.691Z,26.47
2018-02-09T10:28:04.320Z,23.80
2018-02-09T10:30:31.990Z,35.77
2018-02-09T10:32:59.555Z,17.43
2018-02-09T10:35:27.130Z,14.80
2018-02-09T10:37:54.764Z,27.50
2018-02-09T10:40:22.330Z,12.90
2018-02-09T10:42:49.884Z,20.43
2018-02-09T10:45:17.448Z,29.23
2018-02-09T10:47:45.087Z,11.87
2018-02-09T10:50:12.655Z,18.90
2018-02-09T10:52:40.274Z,22.53
2018-02-09T10:55:07.911Z,18.53
2018-02-09T10:57:35.475Z,32.73
2018-02-09T11:00:03.108Z,15.60
2018-02-09T11:02:30.673Z,17.03
2018-02-09T11:04:58.253Z,23.77
2018-02-09T11:07:25.818Z,23.30
2018-02-09T11:09:53.477Z,16.10
2018-02-09T11:12:21.928Z,18.53
2018-02-09T11:14:49.487Z,20.70
2018-02-09T11:17:17.155Z,22.50
2018-02-09T11:19:44.738Z,22.17
2018-02-09T11:22:12.323Z,14.47
2018-02-09T11:24:39.991Z,16.83
2018-02-09T11:27:07.613Z,28.10
2018-02-09T11:29:35.238Z,15.43
2018-02-09T11:32:02.876Z,19.37
2018-02-09T11:34:30.457Z,66.73
2018-02-09T11:36:58.030Z,24.63
2018-02-09T11:39:25.617Z,22.80
2018-02-09T11:41:53.208Z,12.97
2018-02-09T11:44:20.983Z,15.53
2018-02-09T11:46:48.563Z,14.67
2018-02-09T11:49:16.186Z,16.97
2018-02-09T11:51:43.768Z,14.93
2018-02-09T11:54:11.338Z,14.80
2018-02-09T11:56:39.000Z,14.13
2018-02-09T11:59:06.623Z,8.07
2018-02-09T12:01:34.298Z,12.20
2018-02-09T12:04:01.907Z,12.47
2018-02-09T12:06:29.471Z,17.20
2018-02-09T12:08:57.124Z,11.27
2018-02-09T12:11:24.686Z,19.87
2018-02-09T12:13:52.406Z,30.03
2018-02-09T12:16:20.038Z,31.83
2018-02-09T12:18:47.721Z,12.00
2018-02-09T12:21:15.297Z,11.10
2018-02-09T12:23:42.875Z,19.20
2018-02-09T12:26:10.429Z,12.17
2018-02-09T12:28:38.047Z,13.23
2018-02-09T12:31:05.614Z,21.23
2018-02-09T12:33:33.182Z,15.30
2018-02-09T12:36:00.873Z,34.37
2018-02-09T12:38:28.443Z,14.20
2018-02-09T12:40:56.090Z,25.90
2018-02-09T12:43:23.709Z,19.10
2018-02-09T12:45:51.282Z,6.07
2018-02-09T12:48:18.939Z,12.00
2018-02-09T12:50:46.531Z,22.80
2018-02-09T12:53:14.164Z,10.50
2018-02-09T12:55:41.730Z,13.83
2018-02-09T12:58:09.351Z,11.50
2018-02-09T13:00:36.991Z,15.23
2018-02-09T13:03:04.570Z,16.07
2018-02-09T13:05:32.272Z,9.13
2018-02-09T13:07:59.844Z,13.90
2018-02-09T13:10:27.417Z,16.97
2018-02-09T13:13:08.914Z,7.87
2018-02-09T13:15:36.554Z,9.70
2018-02-09T13:18:04.223Z,13.57
2018-02-09T13:20:31.796Z,17.20
2018-02-09T13:23:11.404Z,42.87
2018-02-09T13:25:38.973Z,15.00
2018-02-09T13:28:06.541Z,15.83
2018-02-09T13:30:34.125Z,10.10
2018-02-09T13:33:13.582Z,29.23
2018-02-09T13:35:41.255Z,28.50
2018-02-09T13:38:08.878Z,12.07
2018-02-09T13:40:36.502Z,15.77
2018-02-09T13:43:04.091Z,29.33
2018-02-09T13:45:31.695Z,18.83
2018-02-09T13:47:59.299Z,28.83
2018-02-09T13:50:26.866Z,25.63
2018-02-09T13:52:54.427Z,29.03
2018-02-09T13:55:22.012Z,21.53
2018-02-09T13:57:49.577Z,23.57
2018-02-09T14:00:17.299Z,15.97
2018-02-09T14:02:44.943Z,42.43
2018-02-09T14:05:12.503Z,18.87
2018-02-09T14:07:40.074Z,14.90
2018-02-09T14:10:07.702Z,17.30
2018-02-09T14:12:35.326Z,26.80
2018-02-09T14:15:02.898Z,19.10
2018-02-09T14:17:30.503Z,19.33
2018-02-09T14:19:58.080Z,15.67
2018-02-09T14:22:25.646Z,20.80
2018-02-09T14:24:53.316Z,22.73
2018-02-09T14:27:20.890Z,36.03
2018-02-09T14:29:48.455Z,15.07
2018-02-09T14:32:16.030Z,36.67
2018-02-09T14:34:43.655Z,22.97
2018-02-09T14:37:11.221Z,34.70
2018-02-09T14:39:38.850Z,45.97
2018-02-09T14:42:06.473Z,35.13
2018-02-09T14:44:34.038Z,51.93
2018-02-09T14:47:01.613Z,27.40
2018-02-09T14:49:29.256Z,32.37
2018-02-09T14:51:56.864Z,20.77
2018-02-09T14:54:24.508Z,27.97
2018-02-09T14:56:52.086Z,26.63
2018-02-09T14:59:19.780Z,24.30
2018-02-09T15:01:47.347Z,31.70
2018-02-09T15:04:14.975Z,37.33
2018-02-09T15:06:43.774Z,26.23
2018-02-09T15:09:11.336Z,41.47
2018-02-09T15:11:38.898Z,49.57
2018-02-09T15:14:06.463Z,58.20
2018-02-09T15:16:34.245Z,46.30
2018-02-09T15:19:01.851Z,42.27
2018-02-09T15:21:29.436Z,57.37
2018-02-09T15:23:57.082Z,79.57
2018-02-09T15:26:25.509Z,47.37
2018-02-09T15:28:53.085Z,62.23
2018-02-09T15:31:20.716Z,62.50
2018-02-09T15:33:48.386Z,64.40
2018-02-09T15:36:16.031Z,60.30
2018-02-09T15:38:43.609Z,56.10
2018-02-09T15:41:11.201Z,54.10
2018-02-09T15:43:38.846Z,54.17
2018-02-09T15:46:06.484Z,41.87
2018-02-09T15:48:34.985Z,35.23
2018-02-09T15:51:02.610Z,59.57
2018-02-09T15:53:30.292Z,52.33
2018-02-09T15:55:57.858Z,42.17
2018-02-09T15:58:25.422Z,45.33
2018-02-09T16:00:53.574Z,47.37
2018-02-09T16:03:21.203Z,57.93
2018-02-09T16:05:48.806Z,67.83
2018-02-09T16:08:16.422Z,86.83
2018-02-09T16:10:43.990Z,64.57
2018-02-09T16:13:11.530Z,60.10
2018-02-09T16:15:39.097Z,69.23
2018-02-09T16:18:06.655Z,63.67
2018-02-09T16:20:34.230Z,76.83
2018-02-09T16:23:01.796Z,76.57
2018-02-09T16:25:29.451Z,72.30
2018-02-09T16:27:57.125Z,65.13
2018-02-09T16:30:24.748Z,73.43
2018-02-09T16:32:52.325Z,67.63
2018-02-09T16:35:19.955Z,61.07
2018-02-09T16:37:47.592Z,55.40
2018-02-09T16:40:15.157Z,68.70
2018-02-09T16:42:43.662Z,74.97
2018-02-09T16:45:11.236Z,72.30
2018-02-09T16:47:38.824Z,77.17
2018-02-09T16:50:06.433Z,50.73
2018-02-09T16:52:33.994Z,59.33
2018-02-09T16:55:01.632Z,69.93
2018-02-09T16:57:30.014Z,57.63
2018-02-09T16:59:57.706Z,52.47
2018-02-09T17:02:25.273Z,60.17
2018-02-09T17:04:52.904Z,54.17
2018-02-09T17:07:20.535Z,53.73
2018-02-09T17:09:48.116Z,44.27
2018-02-09T17:12:15.787Z,71.93
2018-02-09T17:14:43.349Z,58.80
2018-02-09T17:17:10.905Z,52.20
2018-02-09T17:19:38.478Z,52.57
2018-02-09T17:22:06.360Z,46.03
2018-02-09T17:24:33.979Z,49.90
2018-02-09T17:27:01.554Z,50.10
2018-02-09T17:29:29.184Z,51.60
2018-02-09T17:31:56.777Z,67.43
2018-02-09T17:34:24.353Z,48.20
2018-02-09T17:36:52.007Z,53.33
2018-02-09T17:39:19.625Z,48.67
2018-02-09T17:41:47.203Z,45.30
2018-02-09T17:44:14.779Z,64.53
2018-02-09T17:46:42.360Z,47.17
2018-02-09T17:49:09.998Z,48.53
2018-02-09T17:51:37.623Z,68.40
2018-02-09T17:54:05.307Z,60.87
2018-02-09T17:56:32.934Z,59.53
2018-02-09T17:59:00.509Z,48.47
2018-02-09T18:01:28.083Z,70.50
2018-02-09T18:03:55.711Z,66.90
2018-02-09T18:06:23.278Z,71.03
2018-02-09T18:08:50.844Z,119.33
2018-02-09T18:11:18.514Z,77.83
2018-02-09T18:13:46.098Z,77.47
2018-02-09T18:16:13.747Z,76.63
2018-02-09T18:18:41.322Z,79.83
2018-02-09T18:21:08.889Z,78.37
2018-02-09T18:23:36.803Z,76.87
2018-02-09T18:26:04.498Z,65.07
2018-02-09T18:28:32.178Z,72.60
2018-02-09T18:30:59.789Z,70.83
2018-02-09T18:33:27.693Z,81.83
2018-02-09T18:35:55.341Z,84.37
2018-02-09T18:38:22.901Z,140.30
2018-02-09T18:40:50.534Z,130.43
2018-02-09T18:43:18.241Z,119.00
2018-02-09T18:45:45.869Z,111.63
2018-02-09T18:48:13.470Z,117.40
2018-02-09T18:50:41.033Z,116.13
2018-02-09T18:53:08.618Z,111.70
2018-02-09T18:55:36.241Z,116.33
2018-02-09T18:58:03.822Z,144.47
2018-02-09T19:00:31.454Z,166.97
2018-02-09T19:02:59.149Z,121.77
2018-02-09T19:05:26.753Z,137.60
2018-02-09T19:07:54.322Z,142.57
2018-02-09T19:10:21.966Z,136.53
2018-02-09T19:12:49.556Z,128.50
2018-02-09T19:15:17.144Z,122.13
2018-02-09T19:17:44.755Z,119.83
2018-02-09T19:20:12.461Z,107.43
2018-02-09T19:22:40.022Z,98.07
2018-02-09T19:25:07.645Z,79.47
2018-02-09T19:27:35.211Z,77.93
2018-02-09T19:30:02.778Z,72.20
2018-02-09T19:32:30.373Z,80.80
2018-02-09T19:34:57.995Z,78.90
2018-02-09T19:37:25.674Z,112.10
2018-02-09T19:39:53.287Z,111.93
2018-02-09T19:42:20.859Z,115.67
2018-02-09T19:44:48.459Z,122.40
2018-02-09T19:47:16.030Z,124.53
2018-02-09T19:49:43.618Z,137.60
2018-02-09T19:52:11.254Z,117.13
2018-02-09T19:54:38.946Z,97.37
2018-02-09T19:57:06.526Z,67.63
2018-02-09T19:59:34.165Z,90.13
2018-02-09T20:02:01.806Z,75.77
2018-02-09T20:04:29.423Z,75.00
2018-02-09T20:06:57.057Z,88.50
2018-02-09T20:09:24.687Z,83.87
2018-02-09T20:11:52.268Z,91.47
2018-02-09T20:14:19.854Z,101.37
2018-02-09T20:16:47.432Z,95.70
2018-02-09T20:19:15.358Z,104.17
2018-02-09T20:21:42.931Z,84.70
2018-02-09T20:24:10.552Z,87.67
2018-02-09T20:26:38.125Z,78.07
2018-02-09T20:29:05.767Z,91.57
2018-02-09T20:31:33.342Z,92.63
2018-02-09T20:34:00.926Z,89.03
2018-02-09T20:36:28.569Z,102.33
2018-02-09T20:38:56.316Z,105.83
2018-02-09T20:41:23.991Z,99.77
2018-02-09T20:43:51.563Z,101.23
2018-02-09T20:46:19.119Z,120.10
2018-02-09T20:48:46.758Z,115.00
2018-02-09T20:51:14.391Z,122.20
2018-02-09T20:53:42.026Z,111.63
2018-02-09T20:56:09.657Z,102.50
2018-02-09T20:58:37.363Z,102.80
2018-02-09T21:01:05.135Z,86.87
2018-02-09T21:03:32.729Z,82.40
2018-02-09T21:06:00.298Z,54.77
2018-02-09T21:08:27.867Z,56.87
2018-02-09T21:10:55.451Z,56.97
2018-02-09T21:13:23.077Z,52.20
2018-02-09T21:15:50.710Z,54.63
2018-02-09T21:18:18.287Z,59.83
2018-02-09T21:20:45.831Z,52.90
2018-02-09T21:23:13.401Z,51.90
2018-02-09T21:25:40.966Z,48.30
2018-02-09T21:30:42.453Z,67.27
2018-02-09T21:33:10.166Z,63.10
2018-02-09T21:35:37.793Z,48.97
2018-02-09T21:38:05.427Z,52.27
2018-02-09T21:40:33.001Z,46.83
2018-02-09T21:43:00.621Z,41.13
2018-02-09T21:45:28.331Z,44.80
2018-02-09T21:47:55.898Z,53.03
2018-02-09T21:50:23.454Z,44.10
2018-02-09T21:52:51.026Z,54.87
2018-02-09T21:55:18.598Z,50.97
2018-02-09T21:57:46.217Z,53.13
2018-02-09T22:00:13.837Z,50.30
2018-02-09T22:02:41.469Z,59.93
2018-02-09T22:05:09.044Z,71.90
2018-02-09T22:07:36.600Z,80.00
2018-02-09T22:10:04.166Z,92.13
2018-02-09T22:12:31.725Z,75.40
2018-02-09T22:14:59.286Z,62.07
2018-02-09T22:17:26.880Z,52.80
2018-02-09T22:19:54.503Z,68.23
2018-02-09T22:22:22.070Z,84.27
2018-02-09T22:24:49.633Z,65.47
2018-02-09T22:27:17.235Z,54.90
2018-02-09T22:29:44.806Z,53.00
2018-02-09T22:32:12.426Z,55.17
2018-02-09T22:34:40.073Z,57.80
2018-02-09T22:37:07.651Z,88.27
2018-02-09T22:39:35.298Z,68.87
2018-02-09T22:42:02.881Z,60.93
2018-02-09T22:44:30.439Z,68.33
2018-02-09T22:46:58.066Z,66.77
2018-02-09T22:49:25.694Z,78.07
2018-02-09T22:51:53.310Z,56.90
2018-02-09T22:54:20.865Z,57.27
2018-02-09T22:56:48.475Z,40.20
2018-02-09T22:59:16.063Z,48.43
2018-02-09T23:01:43.682Z,38.33
2018-02-09T23:04:11.310Z,38.60
2018-02-09T23:06:38.940Z,37.60
2018-02-09T23:09:06.614Z,32.50
2018-02-09T23:11:34.234Z,35.83
2018-02-09T23:14:01.854Z,32.33
2018-02-09T23:16:29.431Z,33.07
2018-02-09T23:18:56.992Z,42.27
2018-02-09T23:21:24.622Z,37.90
2018-02-09T23:23:52.183Z,36.90
2018-02-09T23:26:19.820Z,34.93
2018-02-09T23:28:47.402Z,42.87
2018-02-09T23:31:15.023Z,33.83
2018-02-09T23:33:42.594Z,30.97
2018-02-09T23:36:10.154Z,36.97
2018-02-09T23:38:37.822Z,35.40
2018-02-09T23:41:05.385Z,45.67
2018-02-09T23:43:32.950Z,38.43
2018-02-09T23:46:00.525Z,35.63
2018-02-09T23:48:28.150Z,35.50
2018-02-09T23:50:55.722Z,36.77
2018-02-09T23:53:23.290Z,37.23
2018-02-09T23:55:51.007Z,44.33
2018-02-09T23:58:18.611Z,33.97
